TLPC

Details ICAO TLPC (SLU)
Name George F. L. Charles Airport
Region Saint Lucia
Timezone America/St_Lucia (UTC-4.0)
Plans Departing 87
Arriving 116
Stats Elevation 21 ft / 6 m (AMSL)
Location 14.020000° -60.992900°
Runways 1
Magnetic Variation 15.126° W
Sunrise 2019-07-17 09:45:13 UTC / 2019-07-17 05:45:13 Local
Sunset 2019-07-17 22:37:08 UTC / 2019-07-17 18:37:08 Local
Advertisement - Login to hide

Runways

ID Width Length Bearing (true/mag) Surface Threshold Overrun Markings Lighting
09 148 ft / 45 m 6,233 ft / 1,900 m 74.85° / 89.97° ASPHALT 423 ft / 129 m 0 ft / 0 m APP EDGE THRESHOLD
27 148 ft / 45 m 6,233 ft / 1,900 m 254.85° / 269.98° ASPHALT 866 ft / 264 m 0 ft / 0 m APP EDGE THRESHOLD

Map

Weather


0- 5 10 15 20 25 30 35+ Temperature / °C

Clouds and Precipitation
Forecast for 2019-07-17 06:00 UTC. Updated 6 hours ago

Ground ~20,000 ft ~40,000 ft Winds

METAR

Not found

TAF

TAF TLPC 170500Z 1706/1806 09010KT 9999 SCT024 PROB30 TEMPO 1706/1718 SHRA BKN018TCU

Frequencies

Approach 119.80 MHz Castries Approach
Tower 118.00 MHz Castries Tower
Ground 121.90 MHz Castries Ground Control
Warning: Do not use this data for real-world aviation or navigation. No guarantee of current accuracy is given.